createdAt,value
2023-02-08T00:01:08.351Z,100.00
2023-02-08T00:03:35.776Z,100.00
2023-02-08T00:06:03.477Z,100.00
2023-02-08T00:08:31.016Z,100.00
2023-02-08T00:10:58.124Z,100.00
2023-02-08T00:13:25.141Z,100.00
2023-02-08T00:15:54.127Z,100.00
2023-02-08T00:18:22.329Z,100.00
2023-02-08T00:20:49.647Z,100.00
2023-02-08T00:23:17.374Z,100.00
2023-02-08T00:25:44.331Z,100.00
2023-02-08T00:28:14.933Z,100.00
2023-02-08T00:30:43.096Z,100.00
2023-02-08T00:33:11.025Z,100.00
2023-02-08T00:35:38.130Z,100.00
2023-02-08T00:38:05.061Z,100.00
2023-02-08T00:40:31.862Z,100.00
2023-02-08T00:42:58.719Z,100.00
2023-02-08T00:45:25.517Z,100.00
2023-02-08T00:47:52.263Z,100.00
2023-02-08T00:50:19.553Z,100.00
2023-02-08T00:52:46.324Z,100.00
2023-02-08T00:55:13.115Z,100.00
2023-02-08T00:57:39.876Z,100.00
2023-02-08T01:00:09.223Z,100.00
2023-02-08T01:02:38.947Z,100.00
2023-02-08T01:05:06.428Z,100.00
2023-02-08T01:07:33.197Z,100.00
2023-02-08T01:10:00.806Z,100.00
2023-02-08T01:12:27.756Z,100.00
2023-02-08T01:14:54.522Z,100.00
2023-02-08T01:17:21.276Z,100.00
2023-02-08T01:19:48.084Z,100.00
2023-02-08T01:22:14.841Z,100.00
2023-02-08T01:24:41.932Z,100.00
2023-02-08T01:27:08.839Z,100.00
2023-02-08T01:29:35.695Z,100.00
2023-02-08T01:32:02.514Z,100.00
2023-02-08T01:34:29.316Z,100.00
2023-02-08T01:36:56.104Z,100.00
2023-02-08T01:39:23.248Z,100.00
2023-02-08T01:41:50.015Z,100.00
2023-02-08T01:44:19.508Z,100.00
2023-02-08T01:46:51.381Z,100.00
2023-02-08T01:49:24.317Z,100.00
2023-02-08T01:52:00.845Z,100.00
2023-02-08T01:54:37.159Z,100.00
2023-02-08T01:57:04.899Z,100.00
2023-02-08T01:59:46.132Z,100.00
2023-02-08T02:02:17.145Z,100.00
2023-02-08T02:04:44.581Z,100.00
2023-02-08T02:07:13.439Z,100.00
2023-02-08T02:10:08.139Z,100.00
2023-02-08T02:12:37.189Z,100.00
2023-02-08T02:15:05.825Z,100.00
2023-02-08T02:17:33.151Z,100.00
2023-02-08T02:20:39.183Z,100.00
2023-02-08T02:23:25.583Z,100.00
2023-02-08T02:26:22.939Z,100.00
2023-02-08T02:29:27.552Z,100.00
2023-02-08T02:32:55.788Z,100.00
2023-02-08T02:36:01.395Z,100.00
2023-02-08T02:39:03.786Z,100.00
2023-02-08T02:42:11.047Z,100.00
2023-02-08T02:45:00.358Z,100.00
2023-02-08T02:48:32.877Z,100.00
2023-02-08T02:51:10.474Z,100.00
2023-02-08T02:53:58.353Z,100.00
2023-02-08T02:56:32.401Z,100.00
2023-02-08T02:59:06.129Z,100.00
2023-02-08T03:01:33.626Z,100.00
2023-02-08T03:04:01.166Z,100.00
2023-02-08T03:06:55.570Z,100.00
2023-02-08T03:09:28.315Z,100.00
2023-02-08T03:12:29.199Z,100.00
2023-02-08T03:15:48.397Z,100.00
2023-02-08T03:18:24.141Z,100.00
2023-02-08T03:21:23.486Z,100.00
2023-02-08T03:24:00.126Z,100.00
2023-02-08T03:26:47.193Z,100.00
2023-02-08T03:29:23.257Z,100.00
2023-02-08T03:32:25.438Z,100.00
2023-02-08T03:35:06.205Z,100.00
2023-02-08T03:38:08.227Z,100.00
2023-02-08T03:40:43.147Z,100.00
2023-02-08T03:43:29.764Z,100.00
2023-02-08T03:46:44.101Z,100.00
2023-02-08T03:49:25.103Z,100.00
2023-02-08T03:51:53.570Z,100.00
2023-02-08T03:54:24.691Z,100.00
2023-02-08T03:57:10.796Z,100.00
2023-02-08T03:59:42.993Z,100.00
2023-02-08T04:02:19.519Z,100.00
2023-02-08T04:04:50.290Z,100.00
2023-02-08T04:07:19.504Z,100.00
2023-02-08T04:09:46.930Z,100.00
2023-02-08T04:12:13.866Z,100.00
2023-02-08T04:14:40.678Z,100.00
2023-02-08T04:17:07.837Z,100.00
2023-02-08T04:19:34.633Z,100.00
2023-02-08T04:22:01.559Z,100.00
2023-02-08T04:24:28.349Z,100.00
2023-02-08T04:26:55.197Z,100.00
2023-02-08T04:29:22.286Z,100.00
2023-02-08T04:31:49.245Z,100.00
2023-02-08T04:34:16.582Z,100.00
2023-02-08T04:36:43.754Z,100.00
2023-02-08T04:39:10.799Z,100.00
2023-02-08T04:41:37.568Z,100.00
2023-02-08T04:44:04.329Z,100.00
2023-02-08T04:46:31.177Z,100.00
2023-02-08T04:48:58.989Z,100.00
2023-02-08T04:51:25.928Z,100.00
2023-02-08T04:53:52.692Z,100.00
2023-02-08T04:56:19.833Z,100.00
2023-02-08T04:58:48.569Z,100.00
2023-02-08T05:01:16.677Z,100.00
2023-02-08T05:03:43.513Z,100.00
2023-02-08T05:06:10.645Z,100.00
2023-02-08T05:08:37.564Z,100.00
2023-02-08T05:11:04.594Z,100.00
2023-02-08T05:13:31.964Z,100.00
2023-02-08T05:15:58.771Z,100.00
2023-02-08T05:18:25.759Z,100.00
2023-02-08T05:21:00.991Z,100.00
2023-02-08T05:23:28.264Z,100.00
2023-02-08T05:25:55.377Z,100.00
2023-02-08T05:28:22.588Z,100.00
2023-02-08T05:30:49.829Z,100.00
2023-02-08T05:33:16.987Z,100.00
2023-02-08T05:35:45.468Z,100.00
2023-02-08T05:38:12.482Z,100.00
2023-02-08T05:40:39.552Z,100.00
2023-02-08T05:43:06.504Z,100.00
2023-02-08T05:45:33.514Z,100.00
2023-02-08T05:48:00.306Z,100.00
2023-02-08T05:50:28.153Z,100.00
2023-02-08T05:52:55.033Z,100.00
2023-02-08T05:55:21.803Z,100.00
2023-02-08T05:57:48.821Z,100.00
2023-02-08T06:00:16.313Z,100.00
2023-02-08T06:02:43.395Z,100.00
2023-02-08T06:05:10.232Z,100.00
2023-02-08T06:07:37.106Z,100.00
2023-02-08T06:10:05.013Z,100.00
2023-02-08T06:12:31.939Z,100.00
2023-02-08T06:14:58.850Z,100.00
2023-02-08T06:17:28.764Z,100.00
2023-02-08T06:19:55.789Z,100.00
2023-02-08T06:22:22.631Z,100.00
2023-02-08T06:24:49.406Z,100.00
2023-02-08T06:27:16.554Z,100.00
2023-02-08T06:29:43.370Z,100.00
2023-02-08T06:32:10.226Z,100.00
2023-02-08T06:34:37.148Z,100.00
2023-02-08T06:37:05.727Z,100.00
2023-02-08T06:39:32.975Z,100.00
2023-02-08T06:41:59.768Z,100.00
2023-02-08T06:44:26.661Z,100.00
2023-02-08T06:46:53.532Z,100.00
2023-02-08T06:49:20.291Z,100.00
2023-02-08T06:51:47.264Z,100.00
2023-02-08T06:54:15.720Z,100.00
2023-02-08T06:56:43.572Z,100.00
2023-02-08T06:59:10.599Z,100.00
2023-02-08T07:01:37.432Z,100.00
2023-02-08T07:04:04.905Z,100.00
2023-02-08T07:06:31.953Z,100.00
2023-02-08T07:08:58.905Z,100.00
2023-02-08T07:11:25.941Z,100.00
2023-02-08T07:13:54.660Z,100.00
2023-02-08T07:16:21.761Z,100.00
2023-02-08T07:18:48.588Z,100.00
2023-02-08T07:21:15.818Z,100.00
2023-02-08T07:23:42.741Z,100.00
2023-02-08T07:26:12.502Z,100.00
2023-02-08T07:28:39.766Z,100.00
2023-02-08T07:31:13.725Z,100.00
2023-02-08T07:33:41.324Z,100.00
2023-02-08T07:36:10.596Z,100.00
2023-02-08T07:38:38.878Z,100.00
2023-02-08T07:41:09.733Z,100.00
2023-02-08T07:43:38.755Z,100.00
2023-02-08T07:46:19.222Z,100.00
2023-02-08T07:48:46.937Z,100.00
2023-02-08T07:51:13.732Z,100.00
2023-02-08T07:53:41.248Z,100.00
2023-02-08T07:56:08.291Z,100.00
2023-02-08T07:58:35.046Z,100.00
2023-02-08T08:01:12.564Z,100.00
2023-02-08T08:03:48.212Z,100.00
2023-02-08T08:06:15.035Z,100.00
2023-02-08T08:08:42.536Z,100.00
2023-02-08T08:11:09.438Z,100.00
2023-02-08T08:13:36.219Z,100.00
2023-02-08T08:16:03.074Z,100.00
2023-02-08T08:18:29.992Z,100.00
2023-02-08T08:20:56.806Z,100.00
2023-02-08T08:23:24.149Z,100.00
2023-02-08T08:25:51.262Z,100.00
2023-02-08T08:28:18.209Z,100.00
2023-02-08T08:30:46.014Z,100.00
2023-02-08T08:33:14.597Z,100.00
2023-02-08T08:35:43.045Z,100.00
2023-02-08T08:38:10.297Z,100.00
2023-02-08T08:40:37.063Z,100.00
2023-02-08T08:43:03.817Z,100.00
2023-02-08T08:45:30.670Z,100.00
2023-02-08T08:47:57.624Z,100.00
2023-02-08T08:50:24.400Z,100.00
2023-02-08T08:52:51.316Z,100.00
2023-02-08T08:55:18.223Z,100.00
2023-02-08T08:57:45.280Z,100.00
2023-02-08T09:00:13.222Z,100.00
2023-02-08T09:02:40.039Z,100.00
2023-02-08T09:05:08.321Z,100.00
2023-02-08T09:07:35.554Z,100.00
2023-02-08T09:10:02.505Z,100.00
2023-02-08T09:12:29.702Z,100.00
2023-02-08T09:14:56.810Z,100.00
2023-02-08T09:17:23.662Z,100.00
2023-02-08T09:19:50.456Z,100.00
2023-02-08T09:22:17.421Z,100.00
2023-02-08T09:24:44.300Z,100.00
2023-02-08T09:27:11.432Z,100.00
2023-02-08T09:29:38.184Z,100.00
2023-02-08T09:32:05.202Z,100.00
2023-02-08T09:34:31.950Z,100.00
2023-02-08T09:36:58.801Z,100.00
2023-02-08T09:39:26.430Z,100.00
2023-02-08T09:42:24.790Z,100.00
2023-02-08T09:45:24.541Z,100.00
2023-02-08T09:48:27.006Z,100.00
2023-02-08T09:51:07.878Z,100.00
2023-02-08T09:53:41.622Z,100.00
2023-02-08T09:56:15.684Z,100.00
2023-02-08T09:58:50.265Z,100.00
2023-02-08T10:01:31.169Z,100.00
2023-02-08T10:04:04.782Z,100.00
2023-02-08T10:06:32.010Z,100.00
2023-02-08T10:09:07.231Z,100.00
2023-02-08T10:12:18.493Z,100.00
2023-02-08T10:15:52.533Z,100.00
2023-02-08T10:18:26.808Z,100.00
2023-02-08T10:21:26.111Z,100.00
2023-02-08T10:24:45.431Z,100.00
2023-02-08T10:27:23.626Z,100.00
2023-02-08T10:30:16.972Z,100.00
2023-02-08T10:33:01.872Z,100.00
2023-02-08T10:35:38.893Z,100.00
2023-02-08T10:38:44.058Z,100.00
2023-02-08T10:41:20.325Z,100.00
2023-02-08T10:44:03.670Z,100.00
2023-02-08T10:46:46.122Z,100.00
2023-02-08T10:49:52.036Z,100.00
2023-02-08T10:52:18.756Z,100.00
2023-02-08T10:54:45.529Z,100.00
2023-02-08T10:57:22.831Z,100.00
2023-02-08T11:00:05.429Z,100.00
2023-02-08T11:02:41.472Z,100.00
2023-02-08T11:05:37.558Z,100.00
2023-02-08T11:08:08.900Z,100.00
2023-02-08T11:10:38.325Z,100.00
2023-02-08T11:13:19.145Z,100.00
2023-02-08T11:15:55.554Z,100.00
2023-02-08T11:18:48.573Z,100.00
2023-02-08T11:21:25.298Z,100.00
2023-02-08T11:23:55.669Z,100.00
2023-02-08T11:26:33.982Z,100.00
2023-02-08T11:29:23.908Z,100.00
2023-02-08T11:32:15.316Z,100.00
2023-02-08T11:34:42.153Z,100.00
2023-02-08T11:37:22.834Z,100.00
2023-02-08T11:39:58.388Z,99.13
2023-02-08T11:42:28.331Z,98.46
2023-02-08T11:44:57.867Z,97.40
2023-02-08T11:47:29.396Z,97.12
2023-02-08T11:50:03.666Z,97.07
2023-02-08T11:52:36.254Z,97.79
2023-02-08T11:55:21.819Z,95.67
2023-02-08T11:58:01.641Z,94.57
2023-02-08T12:00:35.642Z,93.03
2023-02-08T12:03:08.433Z,93.09
2023-02-08T12:05:44.761Z,92.39
2023-02-08T12:08:26.174Z,92.23
2023-02-08T12:11:14.217Z,92.45
2023-02-08T12:14:22.771Z,92.00
2023-02-08T12:17:39.486Z,92.12
2023-02-08T12:20:32.317Z,92.32
2023-02-08T12:23:39.048Z,91.42
2023-02-08T12:26:19.702Z,90.26
2023-02-08T12:29:12.735Z,88.61
2023-02-08T12:31:54.905Z,87.33
2023-02-08T12:34:33.897Z,86.50
2023-02-08T12:37:40.001Z,85.01
2023-02-08T12:40:41.760Z,83.97
2023-02-08T12:43:33.233Z,84.50
2023-02-08T12:46:31.079Z,82.14
2023-02-08T12:49:31.908Z,82.60
2023-02-08T12:52:19.395Z,82.56
2023-02-08T12:54:56.813Z,82.46
2023-02-08T12:57:26.169Z,82.49
2023-02-08T13:00:08.574Z,81.09
2023-02-08T13:02:57.871Z,80.08
2023-02-08T13:05:34.767Z,79.57
2023-02-08T13:08:26.824Z,76.26
2023-02-08T13:11:10.740Z,75.88
2023-02-08T13:13:56.816Z,73.57
2023-02-08T13:16:30.189Z,76.16
2023-02-08T13:19:24.240Z,73.78
2023-02-08T13:21:53.993Z,73.68
2023-02-08T13:24:34.838Z,73.81
2023-02-08T13:27:01.710Z,71.36
2023-02-08T13:29:33.384Z,71.58
2023-02-08T13:32:08.613Z,69.27
2023-02-08T13:34:48.808Z,67.39
2023-02-08T13:37:28.275Z,65.85
2023-02-08T13:40:28.557Z,64.29
2023-02-08T13:43:06.128Z,65.43
2023-02-08T13:45:38.347Z,65.15
2023-02-08T13:48:08.950Z,66.95
2023-02-08T13:50:38.625Z,67.57
2023-02-08T13:53:09.332Z,68.30
2023-02-08T13:55:46.313Z,68.50
2023-02-08T13:58:16.022Z,68.68
2023-02-08T14:00:58.214Z,69.34
2023-02-08T14:03:28.241Z,69.83
2023-02-08T14:06:19.438Z,70.02
2023-02-08T14:08:54.374Z,71.00
2023-02-08T14:11:42.571Z,71.64
2023-02-08T14:14:34.375Z,72.28
2023-02-08T14:17:04.202Z,73.20
2023-02-08T14:19:34.765Z,73.15
2023-02-08T14:22:07.093Z,74.06
2023-02-08T14:24:40.292Z,74.62
2023-02-08T14:27:24.186Z,74.66
2023-02-08T14:30:07.460Z,74.90
2023-02-08T14:32:39.383Z,75.37
2023-02-08T14:35:27.338Z,74.90
2023-02-08T14:38:19.051Z,74.96
2023-02-08T14:40:57.915Z,75.04
2023-02-08T14:43:38.642Z,75.45
2023-02-08T14:46:40.340Z,75.11
2023-02-08T14:49:17.471Z,75.33
2023-02-08T14:51:56.383Z,75.73
2023-02-08T14:54:34.230Z,76.09
2023-02-08T14:57:20.357Z,75.99
2023-02-08T14:59:48.402Z,76.22
2023-02-08T15:02:22.735Z,76.15
2023-02-08T15:04:50.133Z,76.65
2023-02-08T15:07:33.538Z,76.45
2023-02-08T15:10:05.977Z,76.76
2023-02-08T15:12:37.164Z,76.43
2023-02-08T15:15:06.594Z,76.03
2023-02-08T15:17:34.818Z,76.47
2023-02-08T15:20:06.430Z,76.47
2023-02-08T15:22:38.522Z,76.85
2023-02-08T15:25:22.916Z,76.99
2023-02-08T15:27:59.759Z,76.56
2023-02-08T15:30:35.447Z,76.31
2023-02-08T15:33:14.638Z,76.70
2023-02-08T15:35:43.548Z,77.28
2023-02-08T15:38:20.302Z,77.15
2023-02-08T15:41:05.304Z,77.46
2023-02-08T15:43:33.769Z,77.77
2023-02-08T15:46:05.340Z,77.67
2023-02-08T15:48:34.073Z,77.54
2023-02-08T15:51:01.968Z,77.82
2023-02-08T15:53:29.854Z,77.78
2023-02-08T15:56:02.069Z,77.75
2023-02-08T15:58:37.905Z,78.24
2023-02-08T16:01:07.565Z,78.17
2023-02-08T16:03:37.020Z,77.80
2023-02-08T16:06:06.957Z,78.23
2023-02-08T16:08:43.192Z,78.23
2023-02-08T16:11:14.263Z,78.21
2023-02-08T16:13:47.244Z,78.35
2023-02-08T16:16:21.868Z,78.64
2023-02-08T16:19:02.470Z,78.61
2023-02-08T16:21:39.633Z,78.91
2023-02-08T16:24:30.116Z,79.18
2023-02-08T16:27:18.132Z,79.43
2023-02-08T16:29:47.647Z,79.67
2023-02-08T16:32:34.338Z,79.98
2023-02-08T16:35:19.230Z,80.39
2023-02-08T16:37:46.288Z,80.85
2023-02-08T16:40:42.494Z,81.10
2023-02-08T16:43:33.990Z,81.55
2023-02-08T16:46:16.602Z,82.46
2023-02-08T16:48:48.509Z,82.67
2023-02-08T16:51:22.107Z,83.22
2023-02-08T16:53:56.975Z,83.28
2023-02-08T16:56:24.247Z,83.90
2023-02-08T16:58:51.500Z,83.81
2023-02-08T17:01:26.512Z,83.96
2023-02-08T17:03:53.464Z,84.21
2023-02-08T17:06:32.154Z,84.63
2023-02-08T17:09:00.908Z,85.66
2023-02-08T17:11:28.729Z,85.74
2023-02-08T17:13:56.243Z,85.76
2023-02-08T17:16:27.259Z,86.02
2023-02-08T17:18:54.497Z,86.42
2023-02-08T17:21:22.081Z,86.58
2023-02-08T17:23:49.873Z,86.95
2023-02-08T17:26:30.133Z,87.82
2023-02-08T17:28:59.612Z,87.93
2023-02-08T17:31:29.812Z,88.58
2023-02-08T17:34:04.242Z,88.23
2023-02-08T17:36:34.201Z,88.10
2023-02-08T17:39:02.189Z,88.57
2023-02-08T17:41:29.022Z,88.95
2023-02-08T17:43:57.938Z,88.90
2023-02-08T17:46:28.324Z,88.82
2023-02-08T17:48:55.211Z,89.04
2023-02-08T17:51:24.283Z,88.87
2023-02-08T17:53:51.194Z,88.79
2023-02-08T17:56:21.451Z,88.74
2023-02-08T17:58:52.933Z,88.91
2023-02-08T18:01:25.213Z,88.58
2023-02-08T18:03:53.000Z,88.64
2023-02-08T18:06:21.053Z,88.39
2023-02-08T18:08:47.828Z,88.53
2023-02-08T18:11:21.176Z,88.59
2023-02-08T18:13:50.602Z,88.38
2023-02-08T18:16:24.380Z,88.59
2023-02-08T18:18:51.547Z,88.57
2023-02-08T18:21:22.445Z,88.46
2023-02-08T18:23:52.783Z,88.70
2023-02-08T18:26:24.062Z,88.58
2023-02-08T18:28:52.023Z,88.80
2023-02-08T18:31:20.668Z,89.39
2023-02-08T18:33:49.748Z,88.94
2023-02-08T18:36:18.391Z,89.32
2023-02-08T18:38:47.549Z,89.68
2023-02-08T18:41:19.549Z,89.30
2023-02-08T18:43:46.522Z,89.24
2023-02-08T18:46:18.110Z,89.31
2023-02-08T18:48:46.571Z,89.41
2023-02-08T18:51:14.934Z,89.52
2023-02-08T18:53:42.946Z,89.59
2023-02-08T18:56:12.809Z,89.79
2023-02-08T18:58:40.064Z,89.78
2023-02-08T19:01:16.435Z,89.91
2023-02-08T19:03:44.984Z,90.17
2023-02-08T19:06:22.435Z,90.12
2023-02-08T19:08:53.030Z,90.29
2023-02-08T19:11:34.226Z,90.85
2023-02-08T19:14:04.392Z,90.91
2023-02-08T19:16:33.477Z,90.84
2023-02-08T19:19:01.445Z,91.07
2023-02-08T19:21:30.324Z,91.47
2023-02-08T19:24:00.931Z,91.17
2023-02-08T19:26:39.840Z,91.38
2023-02-08T19:29:14.694Z,91.20
2023-02-08T19:31:42.313Z,91.36
2023-02-08T19:34:11.995Z,91.66
2023-02-08T19:36:49.436Z,91.71
2023-02-08T19:39:21.266Z,91.64
2023-02-08T19:41:49.447Z,91.62
2023-02-08T19:44:19.075Z,91.68
2023-02-08T19:46:54.379Z,91.78
2023-02-08T19:49:26.061Z,91.58
2023-02-08T19:51:53.471Z,91.89
2023-02-08T19:54:21.573Z,91.88
2023-02-08T19:56:50.502Z,91.95
2023-02-08T19:59:25.335Z,92.20
2023-02-08T20:01:52.948Z,92.31
2023-02-08T20:04:20.730Z,92.21
2023-02-08T20:06:53.106Z,92.31
2023-02-08T20:09:21.257Z,93.28
2023-02-08T20:11:56.971Z,92.76
2023-02-08T20:14:33.615Z,92.97
2023-02-08T20:17:03.708Z,92.96
2023-02-08T20:19:31.347Z,93.00
2023-02-08T20:21:59.193Z,93.26
2023-02-08T20:24:27.120Z,93.55
2023-02-08T20:26:54.996Z,93.36
2023-02-08T20:29:22.862Z,93.22
2023-02-08T20:31:53.674Z,93.23
2023-02-08T20:34:23.558Z,94.14
2023-02-08T20:37:05.858Z,93.50
2023-02-08T20:39:35.027Z,94.01
2023-02-08T20:42:01.880Z,93.72
2023-02-08T20:44:28.795Z,93.65
2023-02-08T20:46:55.818Z,93.80
2023-02-08T20:49:25.721Z,93.89
2023-02-08T20:51:55.843Z,93.74
2023-02-08T20:54:25.638Z,93.70
2023-02-08T20:56:54.271Z,93.67
2023-02-08T20:59:21.502Z,93.56
2023-02-08T21:01:48.607Z,93.64
2023-02-08T21:04:17.258Z,93.66
2023-02-08T21:06:46.106Z,93.52
2023-02-08T21:09:15.398Z,93.30
2023-02-08T21:11:42.442Z,93.22
2023-02-08T21:14:15.437Z,93.08
2023-02-08T21:16:42.348Z,93.17
2023-02-08T21:19:10.915Z,93.27
2023-02-08T21:21:37.686Z,93.23
2023-02-08T21:24:05.605Z,93.52
2023-02-08T21:26:32.436Z,94.48
2023-02-08T21:29:00.892Z,95.05
2023-02-08T21:31:28.059Z,94.83
2023-02-08T21:33:56.824Z,94.58
2023-02-08T21:36:26.155Z,94.59
2023-02-08T21:38:54.162Z,94.73
2023-02-08T21:41:28.326Z,94.96
2023-02-08T21:43:58.678Z,95.59
2023-02-08T21:46:27.983Z,95.70
2023-02-08T21:49:15.145Z,96.44
2023-02-08T21:52:01.222Z,96.37
2023-02-08T21:54:42.657Z,95.93
2023-02-08T21:57:13.952Z,96.33
2023-02-08T21:59:41.388Z,97.21
2023-02-08T22:02:21.927Z,97.01
2023-02-08T22:05:08.754Z,96.83
2023-02-08T22:07:54.639Z,96.83
2023-02-08T22:10:25.967Z,96.79
2023-02-08T22:12:53.676Z,97.14
2023-02-08T22:15:23.535Z,97.27
2023-02-08T22:17:55.922Z,97.34
2023-02-08T22:20:23.283Z,97.41
2023-02-08T22:22:53.130Z,97.57
2023-02-08T22:25:22.506Z,97.70
2023-02-08T22:27:49.783Z,97.60
2023-02-08T22:30:18.944Z,97.57
2023-02-08T22:32:48.407Z,97.71
2023-02-08T22:35:17.806Z,97.86
2023-02-08T22:37:44.989Z,98.17
2023-02-08T22:40:12.926Z,98.40
2023-02-08T22:42:41.209Z,98.26
2023-02-08T22:45:08.931Z,98.91
2023-02-08T22:47:36.437Z,99.10
2023-02-08T22:50:05.061Z,99.42
2023-02-08T22:52:34.528Z,99.42
2023-02-08T22:55:04.170Z,99.28
2023-02-08T22:57:35.951Z,99.88
2023-02-08T23:00:06.141Z,99.21
2023-02-08T23:02:33.314Z,99.25
2023-02-08T23:05:00.174Z,99.02
2023-02-08T23:07:27.129Z,99.01
2023-02-08T23:09:54.066Z,99.10
2023-02-08T23:12:20.885Z,98.98
2023-02-08T23:14:49.624Z,99.29
2023-02-08T23:17:17.073Z,99.30
2023-02-08T23:19:43.860Z,99.32
2023-02-08T23:22:10.700Z,99.26
2023-02-08T23:24:37.458Z,99.29
2023-02-08T23:27:04.597Z,99.27
2023-02-08T23:29:31.459Z,99.36
2023-02-08T23:31:58.324Z,99.62
2023-02-08T23:34:25.165Z,99.66
2023-02-08T23:36:52.097Z,100.00
2023-02-08T23:39:18.865Z,100.00
2023-02-08T23:41:45.911Z,100.00
2023-02-08T23:44:12.800Z,100.00
2023-02-08T23:46:39.695Z,100.00
2023-02-08T23:49:06.821Z,100.00
2023-02-08T23:51:33.581Z,100.00
2023-02-08T23:54:00.398Z,100.00
2023-02-08T23:56:30.104Z,100.00
2023-02-08T23:58:59.422Z,100.00
